createdAt,value
2022-10-05T00:00:59.505Z,99.25
2022-10-05T00:01:59.535Z,99.51
2022-10-05T00:02:59.499Z,99.45
2022-10-05T00:03:59.488Z,99.41
2022-10-05T00:04:59.473Z,99.86
2022-10-05T00:05:59.457Z,99.99
2022-10-05T00:06:59.409Z,99.91
2022-10-05T00:07:59.395Z,99.99
2022-10-05T00:08:59.386Z,99.71
2022-10-05T00:09:59.365Z,99.71
2022-10-05T00:10:59.373Z,99.99
2022-10-05T00:11:59.332Z,99.98
2022-10-05T00:12:59.321Z,99.56
2022-10-05T00:13:59.343Z,98.65
2022-10-05T00:14:59.314Z,98.74
2022-10-05T00:15:59.340Z,98.65
2022-10-05T00:16:59.322Z,97.82
2022-10-05T00:17:59.247Z,97.92
2022-10-05T00:18:59.228Z,98.03
2022-10-05T00:19:59.211Z,97.72
2022-10-05T00:20:59.193Z,98.54
2022-10-05T00:21:59.185Z,98.74
2022-10-05T00:22:59.160Z,98.54
2022-10-05T00:23:59.153Z,98.29
2022-10-05T00:24:59.139Z,97.88
2022-10-05T00:25:59.115Z,98.29
2022-10-05T00:26:59.104Z,96.96
2022-10-05T00:27:59.124Z,96.80
2022-10-05T00:28:59.068Z,96.49
2022-10-05T00:29:59.065Z,96.59
2022-10-05T00:30:59.038Z,97.52
2022-10-05T00:31:59.142Z,97.21
2022-10-05T00:32:59.914Z,97.41
2022-10-05T00:33:59.002Z,97.16
2022-10-05T00:34:58.976Z,98.08
2022-10-05T00:35:58.969Z,97.37
2022-10-05T00:36:58.954Z,97.88
2022-10-05T00:37:58.933Z,98.19
2022-10-05T00:38:58.918Z,98.39
2022-10-05T00:39:58.900Z,98.39
2022-10-05T00:40:58.885Z,98.49
2022-10-05T00:41:58.875Z,98.29
2022-10-05T00:42:58.861Z,97.98
2022-10-05T00:43:58.842Z,98.24
2022-10-05T00:44:58.824Z,98.24
2022-10-05T00:45:58.944Z,98.04
2022-10-05T00:46:58.799Z,98.04
2022-10-05T00:47:58.787Z,97.63
2022-10-05T00:48:58.764Z,97.53
2022-10-05T00:49:58.752Z,97.53
2022-10-05T00:50:58.759Z,97.53
2022-10-05T00:51:58.720Z,97.69
2022-10-05T00:52:58.706Z,97.79
2022-10-05T00:53:58.689Z,98.20
2022-10-05T00:54:58.675Z,98.24
2022-10-05T00:55:58.810Z,97.89
2022-10-05T00:56:58.657Z,97.69
2022-10-05T00:57:58.634Z,97.89
2022-10-05T00:58:58.611Z,96.87
2022-10-05T00:59:58.600Z,96.46
2022-10-05T01:00:58.610Z,96.97
2022-10-05T01:01:58.641Z,96.42
2022-10-05T01:02:58.549Z,96.42
2022-10-05T01:03:58.534Z,96.01
2022-10-05T01:04:58.520Z,96.01
2022-10-05T01:05:58.535Z,96.42
2022-10-05T01:06:58.497Z,96.01
2022-10-05T01:07:58.475Z,96.21
2022-10-05T01:08:58.467Z,96.62
2022-10-05T01:09:58.446Z,95.90
2022-10-05T01:10:58.469Z,96.11
2022-10-05T01:11:58.417Z,96.42
2022-10-05T01:12:58.400Z,95.70
2022-10-05T01:13:58.386Z,96.01
2022-10-05T01:14:58.368Z,95.29
2022-10-05T01:15:58.362Z,96.05
2022-10-05T01:16:58.443Z,96.21
2022-10-05T01:17:58.323Z,96.51
2022-10-05T01:18:58.315Z,96.21
2022-10-05T01:19:58.298Z,96.26
2022-10-05T01:20:58.275Z,96.46
2022-10-05T01:21:58.265Z,96.77
2022-10-05T01:22:58.254Z,96.77
2022-10-05T01:23:58.233Z,96.46
2022-10-05T01:24:58.216Z,97.17
2022-10-05T01:25:58.248Z,97.28
2022-10-05T01:26:58.186Z,97.79
2022-10-05T01:27:58.257Z,97.38
2022-10-05T01:28:58.160Z,97.79
2022-10-05T01:29:58.141Z,97.49
2022-10-05T01:30:58.129Z,97.49
2022-10-05T01:31:58.203Z,97.79
2022-10-05T01:32:58.148Z,97.58
2022-10-05T01:33:58.083Z,98.40
2022-10-05T01:34:58.065Z,98.24
2022-10-05T01:35:58.051Z,98.20
2022-10-05T01:36:58.042Z,97.53
2022-10-05T01:37:58.031Z,98.40
2022-10-05T01:38:58.065Z,98.20
2022-10-05T01:39:57.999Z,98.65
2022-10-05T01:40:57.981Z,98.71
2022-10-05T01:41:57.967Z,98.65
2022-10-05T01:42:57.947Z,98.14
2022-10-05T01:43:57.933Z,98.04
2022-10-05T01:44:57.941Z,98.35
2022-10-05T01:45:57.965Z,98.14
2022-10-05T01:46:57.895Z,97.74
2022-10-05T01:47:57.905Z,97.63
2022-10-05T01:48:57.857Z,98.08
2022-10-05T01:49:57.846Z,98.08
2022-10-05T01:50:57.830Z,98.44
2022-10-05T01:51:57.813Z,98.85
2022-10-05T01:52:57.819Z,99.56
2022-10-05T01:53:57.780Z,99.56
2022-10-05T01:54:57.799Z,99.99
2022-10-05T01:55:57.752Z,99.99
2022-10-05T01:56:57.747Z,99.99
2022-10-05T01:57:57.723Z,99.99
2022-10-05T01:58:57.707Z,99.99
2022-10-05T01:59:57.693Z,99.99
2022-10-05T02:00:57.706Z,99.99
2022-10-05T02:01:57.738Z,99.99
2022-10-05T02:02:57.642Z,99.98
2022-10-05T02:03:57.655Z,99.99
2022-10-05T02:05:01.951Z,99.57
2022-10-05T02:05:57.599Z,99.78
2022-10-05T02:06:57.591Z,99.63
2022-10-05T02:07:57.573Z,99.47
2022-10-05T02:08:57.579Z,99.88
2022-10-05T02:09:57.541Z,99.73
2022-10-05T02:10:57.528Z,99.73
2022-10-05T02:11:57.509Z,99.84
2022-10-05T02:12:57.495Z,99.43
2022-10-05T02:13:57.512Z,99.73
2022-10-05T02:14:57.463Z,99.84
2022-10-05T02:15:57.469Z,99.73
2022-10-05T02:16:57.434Z,99.11
2022-10-05T02:17:57.415Z,99.32
2022-10-05T02:18:57.410Z,99.43
2022-10-05T02:19:57.384Z,99.32
2022-10-05T02:20:57.386Z,98.61
2022-10-05T02:21:57.357Z,98.40
2022-10-05T02:22:57.340Z,98.10
2022-10-05T02:23:57.329Z,97.85
2022-10-05T02:24:57.311Z,97.64
2022-10-05T02:25:57.333Z,98.36
2022-10-05T02:26:57.287Z,97.85
2022-10-05T02:27:57.282Z,98.20
2022-10-05T02:28:57.257Z,97.58
2022-10-05T02:29:57.238Z,98.25
2022-10-05T02:30:57.226Z,97.44
2022-10-05T02:31:57.316Z,98.25
2022-10-05T02:32:57.189Z,98.05
2022-10-05T02:33:57.176Z,97.13
2022-10-05T02:34:57.161Z,96.58
2022-10-05T02:35:57.145Z,96.37
2022-10-05T02:36:57.130Z,96.21
2022-10-05T02:37:57.147Z,96.11
2022-10-05T02:38:57.102Z,96.06
2022-10-05T02:39:57.084Z,96.17
2022-10-05T02:40:57.081Z,96.37
2022-10-05T02:41:57.072Z,95.41
2022-10-05T02:42:57.067Z,95.72
2022-10-05T02:43:57.025Z,95.20
2022-10-05T02:44:57.014Z,94.79
2022-10-05T02:45:57.049Z,94.79
2022-10-05T02:46:57.813Z,95.06
2022-10-05T02:47:57.152Z,94.65
2022-10-05T02:48:56.954Z,94.95
2022-10-05T02:49:56.933Z,94.79
2022-10-05T02:50:56.924Z,94.79
2022-10-05T02:51:56.905Z,94.90
2022-10-05T02:52:56.901Z,95.06
2022-10-05T02:53:56.882Z,94.70
2022-10-05T02:54:56.871Z,95.20
2022-10-05T02:55:56.843Z,94.65
2022-10-05T02:56:56.833Z,94.95
2022-10-05T02:57:56.816Z,94.45
2022-10-05T02:58:56.842Z,94.70
2022-10-05T02:59:56.787Z,95.51
2022-10-05T03:00:56.794Z,95.92
2022-10-05T03:01:56.796Z,95.31
2022-10-05T03:02:56.769Z,95.61
2022-10-05T03:03:56.730Z,95.41
2022-10-05T03:04:56.714Z,96.33
2022-10-05T03:05:56.705Z,96.33
2022-10-05T03:06:56.685Z,95.81
2022-10-05T03:07:56.728Z,95.92
2022-10-05T03:08:56.653Z,95.81
2022-10-05T03:10:00.751Z,95.92
2022-10-05T03:10:56.642Z,96.22
2022-10-05T03:11:56.606Z,96.63
2022-10-05T03:12:56.594Z,96.73
2022-10-05T03:13:56.603Z,96.53
2022-10-05T03:14:56.566Z,96.84
2022-10-05T03:15:56.583Z,97.04
2022-10-05T03:16:56.536Z,97.34
2022-10-05T03:17:56.521Z,96.94
2022-10-05T03:18:56.542Z,97.04
2022-10-05T03:19:56.488Z,97.04
2022-10-05T03:20:56.475Z,97.75
2022-10-05T03:21:56.459Z,97.96
2022-10-05T03:22:56.475Z,97.65
2022-10-05T03:23:56.428Z,97.39
2022-10-05T03:24:56.415Z,97.96
2022-10-05T03:25:56.399Z,97.29
2022-10-05T03:26:56.391Z,97.04
2022-10-05T03:27:56.420Z,98.21
2022-10-05T03:28:56.358Z,97.04
2022-10-05T03:29:56.338Z,97.65
2022-10-05T03:30:56.377Z,96.94
2022-10-05T03:31:56.313Z,96.84
2022-10-05T03:32:56.332Z,97.04
2022-10-05T03:33:56.294Z,96.94
2022-10-05T03:34:56.276Z,97.24
2022-10-05T03:35:56.252Z,96.94
2022-10-05T03:36:56.246Z,96.43
2022-10-05T03:37:56.224Z,96.73
2022-10-05T03:38:56.242Z,97.24
2022-10-05T03:39:56.206Z,97.75
2022-10-05T03:40:56.220Z,96.73
2022-10-05T03:41:56.164Z,96.22
2022-10-05T03:42:56.156Z,96.63
2022-10-05T03:43:56.162Z,96.94
2022-10-05T03:44:56.120Z,97.24
2022-10-05T03:45:56.137Z,96.84
2022-10-05T03:46:56.092Z,96.73
2022-10-05T03:48:01.121Z,97.75
2022-10-05T03:48:56.096Z,97.45
2022-10-05T03:49:56.046Z,97.14
2022-10-05T03:50:56.034Z,97.04
2022-10-05T03:51:56.015Z,96.73
2022-10-05T03:52:56.008Z,97.29
2022-10-05T03:53:55.987Z,97.24
2022-10-05T03:54:56.016Z,97.39
2022-10-05T03:55:55.956Z,96.94
2022-10-05T03:56:55.947Z,97.08
2022-10-05T03:57:55.926Z,97.24
2022-10-05T03:58:55.914Z,98.16
2022-10-05T03:59:55.894Z,97.24
2022-10-05T04:00:55.887Z,97.24
2022-10-05T04:01:55.962Z,97.75
2022-10-05T04:02:55.935Z,97.86
2022-10-05T04:03:55.841Z,98.06
2022-10-05T04:04:55.829Z,97.49
2022-10-05T04:05:55.860Z,98.06
2022-10-05T04:06:55.802Z,98.52
2022-10-05T04:07:55.779Z,97.60
2022-10-05T04:08:55.771Z,97.49
2022-10-05T04:09:55.755Z,97.49
2022-10-05T04:10:55.738Z,97.49
2022-10-05T04:11:55.738Z,98.06
2022-10-05T04:12:55.708Z,97.29
2022-10-05T04:13:55.691Z,97.70
2022-10-05T04:14:55.677Z,97.90
2022-10-05T04:15:55.758Z,98.31
2022-10-05T04:16:55.651Z,98.21
2022-10-05T04:17:55.632Z,98.05
2022-10-05T04:18:55.621Z,98.11
2022-10-05T04:19:55.600Z,98.21
2022-10-05T04:20:55.595Z,98.41
2022-10-05T04:21:55.576Z,98.00
2022-10-05T04:22:55.563Z,98.00
2022-10-05T04:23:55.542Z,98.11
2022-10-05T04:24:55.558Z,98.00
2022-10-05T04:25:55.516Z,98.31
2022-10-05T04:26:55.517Z,97.29
2022-10-05T04:27:55.559Z,97.49
2022-10-05T04:28:55.521Z,97.29
2022-10-05T04:29:55.462Z,97.75
2022-10-05T04:30:55.443Z,97.80
2022-10-05T04:31:55.449Z,97.90
2022-10-05T04:32:55.412Z,97.80
2022-10-05T04:33:55.393Z,97.60
2022-10-05T04:34:55.380Z,97.39
2022-10-05T04:35:55.364Z,97.90
2022-10-05T04:36:55.382Z,97.75
2022-10-05T04:37:55.365Z,97.96
2022-10-05T04:38:55.323Z,97.14
2022-10-05T04:39:55.307Z,97.24
2022-10-05T04:40:55.292Z,97.34
2022-10-05T04:41:55.281Z,97.65
2022-10-05T04:42:55.309Z,97.45
2022-10-05T04:43:55.250Z,96.84
2022-10-05T04:44:59.075Z,96.94
2022-10-05T04:45:55.220Z,97.14
2022-10-05T04:46:55.305Z,97.04
2022-10-05T04:47:55.214Z,97.14
2022-10-05T04:48:55.180Z,96.84
2022-10-05T04:49:55.160Z,96.94
2022-10-05T04:50:55.152Z,97.04
2022-10-05T04:51:55.129Z,97.65
2022-10-05T04:52:55.152Z,97.86
2022-10-05T04:53:55.108Z,97.04
2022-10-05T04:54:55.100Z,97.34
2022-10-05T04:55:55.075Z,97.04
2022-10-05T04:56:55.055Z,97.45
2022-10-05T04:57:55.070Z,97.65
2022-10-05T04:58:55.054Z,97.39
2022-10-05T04:59:55.012Z,97.08
2022-10-05T05:00:55.114Z,98.00
2022-10-05T05:01:54.982Z,97.60
2022-10-05T05:02:54.970Z,97.70
2022-10-05T05:03:55.163Z,97.34
2022-10-05T05:04:54.939Z,97.45
2022-10-05T05:06:15.849Z,97.86
2022-10-05T05:06:54.913Z,97.34
2022-10-05T05:07:55.481Z,97.04
2022-10-05T05:08:54.885Z,97.04
2022-10-05T05:09:54.922Z,97.65
2022-10-05T05:10:54.853Z,96.63
2022-10-05T05:11:54.834Z,96.33
2022-10-05T05:12:54.820Z,97.14
2022-10-05T05:13:54.826Z,97.65
2022-10-05T05:14:54.795Z,96.84
2022-10-05T05:15:54.828Z,96.59
2022-10-05T05:16:54.763Z,95.57
2022-10-05T05:17:54.751Z,96.08
2022-10-05T05:18:54.738Z,95.87
2022-10-05T05:19:54.744Z,95.57
2022-10-05T05:20:54.745Z,95.81
2022-10-05T05:21:54.695Z,96.28
2022-10-05T05:22:54.691Z,95.77
2022-10-05T05:23:54.667Z,96.38
2022-10-05T05:24:54.656Z,96.12
2022-10-05T05:25:54.780Z,96.22
2022-10-05T05:26:54.614Z,96.59
2022-10-05T05:27:54.665Z,96.08
2022-10-05T05:28:54.588Z,96.08
2022-10-05T05:29:54.568Z,95.92
2022-10-05T05:30:54.639Z,95.77
2022-10-05T05:31:54.562Z,95.61
2022-10-05T05:32:54.530Z,96.02
2022-10-05T05:33:54.512Z,95.87
2022-10-05T05:34:54.499Z,96.18
2022-10-05T05:35:54.549Z,96.48
2022-10-05T05:36:54.469Z,96.28
2022-10-05T05:37:54.451Z,96.12
2022-10-05T05:38:54.439Z,96.22
2022-10-05T05:39:54.421Z,96.18
2022-10-05T05:40:54.407Z,95.97
2022-10-05T05:41:54.438Z,96.18
2022-10-05T05:42:54.427Z,95.72
2022-10-05T05:43:54.360Z,95.97
2022-10-05T05:44:54.348Z,96.08
2022-10-05T05:45:54.333Z,95.92
2022-10-05T05:47:05.854Z,95.97
2022-10-05T05:47:54.361Z,95.92
2022-10-05T05:48:54.295Z,95.67
2022-10-05T05:49:54.276Z,95.47
2022-10-05T05:50:54.261Z,96.08
2022-10-05T05:51:54.246Z,96.28
2022-10-05T05:52:54.233Z,96.48
2022-10-05T05:53:54.231Z,97.14
2022-10-05T05:54:54.231Z,97.14
2022-10-05T05:55:54.187Z,96.94
2022-10-05T05:56:54.173Z,97.04
2022-10-05T05:57:54.181Z,96.48
2022-10-05T05:58:54.144Z,96.28
2022-10-05T05:59:54.124Z,96.28
2022-10-05T06:00:54.111Z,96.28
2022-10-05T06:01:54.197Z,96.28
2022-10-05T06:02:54.195Z,96.59
2022-10-05T06:03:54.097Z,96.28
2022-10-05T06:04:54.052Z,95.97
2022-10-05T06:05:54.039Z,96.38
2022-10-05T06:06:54.037Z,96.28
2022-10-05T06:07:54.017Z,95.97
2022-10-05T06:08:54.034Z,95.77
2022-10-05T06:09:53.979Z,95.77
2022-10-05T06:10:53.974Z,96.18
2022-10-05T06:11:53.944Z,96.38
2022-10-05T06:12:56.427Z,95.62
2022-10-05T06:13:53.918Z,95.73
2022-10-05T06:14:53.932Z,96.03
2022-10-05T06:15:53.956Z,96.03
2022-10-05T06:16:53.952Z,95.73
2022-10-05T06:17:53.874Z,95.73
2022-10-05T06:18:53.846Z,95.73
2022-10-05T06:19:53.837Z,95.93
2022-10-05T06:20:53.824Z,95.73
2022-10-05T06:21:53.804Z,95.93
2022-10-05T06:22:53.820Z,95.73
2022-10-05T06:23:53.773Z,96.14
2022-10-05T06:24:53.765Z,96.34
2022-10-05T06:25:53.898Z,95.17
2022-10-05T06:26:53.728Z,95.78
2022-10-05T06:27:53.765Z,95.37
2022-10-05T06:28:53.706Z,95.37
2022-10-05T06:29:53.685Z,95.58
2022-10-05T06:30:53.670Z,94.05
2022-10-05T06:31:58.564Z,94.76
2022-10-05T06:32:53.657Z,94.66
2022-10-05T06:33:53.625Z,94.35
2022-10-05T06:34:53.613Z,94.26
2022-10-05T06:35:53.600Z,94.05
2022-10-05T06:36:53.610Z,94.15
2022-10-05T06:37:53.570Z,94.15
2022-10-05T06:38:53.550Z,94.35
2022-10-05T06:39:55.456Z,94.31
2022-10-05T06:40:53.552Z,94.66
2022-10-05T06:41:53.510Z,94.26
2022-10-05T06:42:53.504Z,94.46
2022-10-05T06:43:53.507Z,94.35
2022-10-05T06:44:53.495Z,94.46
2022-10-05T06:45:53.534Z,94.62
2022-10-05T06:46:53.461Z,94.52
2022-10-05T06:47:53.418Z,94.62
2022-10-05T06:48:54.014Z,93.70
2022-10-05T06:49:53.393Z,93.60
2022-10-05T06:50:53.379Z,93.50
2022-10-05T06:51:53.393Z,93.60
2022-10-05T06:52:53.346Z,93.70
2022-10-05T06:53:53.337Z,93.70
2022-10-05T06:54:53.356Z,94.52
2022-10-05T06:55:53.305Z,93.80
2022-10-05T06:56:53.346Z,93.70
2022-10-05T06:57:53.273Z,93.60
2022-10-05T06:58:53.260Z,93.40
2022-10-05T06:59:53.243Z,93.80
2022-10-05T07:00:53.305Z,93.70
2022-10-05T07:01:53.290Z,93.55
2022-10-05T07:02:53.281Z,93.70
2022-10-05T07:03:53.213Z,93.80
2022-10-05T07:04:53.175Z,93.66
2022-10-05T07:05:53.164Z,93.55
2022-10-05T07:06:53.145Z,93.25
2022-10-05T07:07:53.131Z,93.76
2022-10-05T07:08:53.161Z,93.25
2022-10-05T07:09:53.149Z,93.01
2022-10-05T07:10:53.103Z,93.35
2022-10-05T07:11:57.496Z,93.25
2022-10-05T07:12:53.074Z,93.21
2022-10-05T07:13:53.069Z,92.49
2022-10-05T07:14:53.026Z,92.60
2022-10-05T07:15:53.066Z,92.70
2022-10-05T07:16:53.116Z,92.19
2022-10-05T07:17:52.993Z,91.88
2022-10-05T07:18:53.034Z,92.70
2022-10-05T07:19:52.958Z,93.51
2022-10-05T07:20:52.967Z,93.10
2022-10-05T07:21:52.935Z,92.60
2022-10-05T07:22:52.915Z,92.76
2022-10-05T07:23:52.899Z,92.45
2022-10-05T07:24:52.882Z,92.55
2022-10-05T07:25:52.897Z,92.76
2022-10-05T07:26:52.857Z,91.74
2022-10-05T07:27:52.843Z,91.64
2022-10-05T07:28:52.825Z,92.40
2022-10-05T07:29:52.818Z,92.80
2022-10-05T07:30:52.889Z,92.96
2022-10-05T07:31:52.808Z,92.35
2022-10-05T07:32:52.772Z,92.04
2022-10-05T07:33:52.760Z,93.06
2022-10-05T07:34:52.744Z,93.16
2022-10-05T07:35:52.763Z,92.14
2022-10-05T07:36:55.078Z,91.33
2022-10-05T07:37:52.710Z,91.13
2022-10-05T07:39:13.701Z,92.35
2022-10-05T07:40:01.047Z,91.84
2022-10-05T07:40:52.658Z,91.64
2022-10-05T07:41:52.653Z,91.84
2022-10-05T07:42:52.642Z,92.14
2022-10-05T07:44:02.016Z,92.45
2022-10-05T07:44:52.607Z,91.74
2022-10-05T07:45:52.667Z,91.94
2022-10-05T07:46:52.604Z,91.74
2022-10-05T07:47:52.555Z,91.49
2022-10-05T07:48:52.571Z,92.21
2022-10-05T07:49:52.526Z,92.61
2022-10-05T07:50:52.516Z,92.21
2022-10-05T07:51:52.516Z,91.80
2022-10-05T07:52:52.490Z,91.60
2022-10-05T07:53:52.475Z,91.69
2022-10-05T07:54:52.461Z,91.60
2022-10-05T07:55:52.446Z,91.19
2022-10-05T07:56:52.431Z,90.99
2022-10-05T07:57:52.434Z,90.58
2022-10-05T07:58:52.405Z,90.48
2022-10-05T07:59:52.389Z,91.29
2022-10-05T08:00:52.377Z,91.80
2022-10-05T08:01:52.442Z,90.48
2022-10-05T08:02:52.466Z,90.78
2022-10-05T08:03:52.363Z,90.68
2022-10-05T08:04:52.320Z,90.78
2022-10-05T08:05:52.304Z,90.68
2022-10-05T08:06:52.302Z,90.99
2022-10-05T08:07:52.300Z,91.19
2022-10-05T08:08:52.265Z,91.09
2022-10-05T08:09:52.281Z,90.84
2022-10-05T08:10:52.237Z,91.29
2022-10-05T08:11:52.234Z,91.14
2022-10-05T08:12:52.210Z,91.55
2022-10-05T08:13:52.244Z,91.75
2022-10-05T08:14:52.181Z,90.78
2022-10-05T08:15:52.247Z,91.35
2022-10-05T08:16:52.174Z,90.44
2022-10-05T08:17:52.135Z,90.64
2022-10-05T08:18:52.123Z,91.75
2022-10-05T08:19:52.111Z,90.78
2022-10-05T08:20:52.097Z,90.58
2022-10-05T08:21:52.080Z,90.74
2022-10-05T08:22:52.097Z,91.25
2022-10-05T08:23:52.075Z,90.74
2022-10-05T08:24:52.070Z,91.09
2022-10-05T08:25:52.038Z,90.33
2022-10-05T08:26:52.014Z,90.74
2022-10-05T08:27:51.999Z,90.84
2022-10-05T08:28:52.029Z,90.48
2022-10-05T08:29:51.969Z,90.53
2022-10-05T08:30:51.996Z,91.05
2022-10-05T08:31:51.940Z,90.44
2022-10-05T08:32:51.930Z,90.99
2022-10-05T08:33:51.961Z,91.05
2022-10-05T08:34:51.900Z,90.74
2022-10-05T08:35:51.908Z,90.64
2022-10-05T08:36:54.014Z,90.53
2022-10-05T08:37:51.875Z,91.25
2022-10-05T08:38:51.843Z,90.44
2022-10-05T08:39:51.828Z,90.74
2022-10-05T08:40:51.831Z,90.64
2022-10-05T08:41:51.804Z,90.44
2022-10-05T08:42:51.795Z,91.14
2022-10-05T08:43:51.771Z,90.33
2022-10-05T08:44:51.765Z,91.35
2022-10-05T08:45:51.821Z,90.94
2022-10-05T08:46:51.738Z,90.74
2022-10-05T08:47:51.716Z,90.23
2022-10-05T08:48:51.707Z,90.37
2022-10-05T08:49:51.691Z,90.13
2022-10-05T08:50:51.710Z,89.92
2022-10-05T08:51:51.665Z,90.44
2022-10-05T08:52:51.662Z,90.33
2022-10-05T08:53:51.657Z,90.13
2022-10-05T08:54:51.637Z,89.87
2022-10-05T08:55:51.605Z,90.23
2022-10-05T08:56:51.592Z,90.13
2022-10-05T08:57:51.604Z,90.33
2022-10-05T08:58:51.564Z,89.52
2022-10-05T08:59:51.567Z,89.62
2022-10-05T09:00:51.564Z,89.22
2022-10-05T09:01:51.629Z,89.52
2022-10-05T09:02:51.547Z,89.42
2022-10-05T09:03:51.501Z,89.92
2022-10-05T09:04:51.535Z,90.33
2022-10-05T09:05:51.465Z,89.01
2022-10-05T09:06:51.458Z,88.40
2022-10-05T09:07:51.436Z,87.59
2022-10-05T09:08:51.426Z,87.89
2022-10-05T09:09:51.414Z,87.69
2022-10-05T09:10:51.564Z,88.40
2022-10-05T09:11:51.379Z,88.26
2022-10-05T09:12:51.372Z,88.60
2022-10-05T09:13:51.359Z,88.36
2022-10-05T09:15:01.492Z,88.26
2022-10-05T09:15:51.405Z,87.69
2022-10-05T09:16:51.347Z,88.20
2022-10-05T09:17:51.297Z,88.50
2022-10-05T09:18:51.292Z,87.59
2022-10-05T09:19:51.270Z,88.26
2022-10-05T09:20:51.264Z,88.56
2022-10-05T09:21:51.242Z,88.87
2022-10-05T09:22:51.259Z,88.06
2022-10-05T09:23:51.219Z,87.65
2022-10-05T09:24:51.204Z,88.16
2022-10-05T09:25:51.193Z,88.01
2022-10-05T09:26:51.189Z,88.42
2022-10-05T09:27:51.156Z,87.04
2022-10-05T09:28:51.156Z,88.46
2022-10-05T09:29:51.146Z,87.92
2022-10-05T09:30:51.165Z,87.51
2022-10-05T09:31:51.127Z,87.75
2022-10-05T09:32:51.118Z,88.12
2022-10-05T09:33:51.074Z,88.01
2022-10-05T09:34:51.071Z,87.61
2022-10-05T09:35:51.047Z,87.92
2022-10-05T09:36:51.088Z,87.00
2022-10-05T09:37:51.049Z,86.69
2022-10-05T09:38:51.010Z,87.10
2022-10-05T09:39:50.990Z,88.32
2022-10-05T09:40:50.979Z,87.92
2022-10-05T09:41:50.978Z,88.68
2022-10-05T09:42:50.980Z,87.81
2022-10-05T09:43:50.967Z,88.07
2022-10-05T09:44:50.924Z,87.92
2022-10-05T09:45:50.948Z,88.38
2022-10-05T09:46:50.898Z,88.89
2022-10-05T09:47:50.899Z,89.90
2022-10-05T09:48:50.910Z,88.18
2022-10-05T09:49:50.854Z,87.46
2022-10-05T09:50:50.858Z,87.77
2022-10-05T09:51:50.826Z,88.38
2022-10-05T09:52:50.824Z,89.80
2022-10-05T09:53:50.826Z,89.59
2022-10-05T09:54:50.785Z,87.87
2022-10-05T09:55:50.773Z,86.76
2022-10-05T09:56:50.760Z,88.38
2022-10-05T09:57:53.105Z,88.48
2022-10-05T09:58:50.739Z,87.97
2022-10-05T09:59:50.716Z,88.18
2022-10-05T10:00:58.830Z,87.37
2022-10-05T10:01:51.097Z,88.03
2022-10-05T10:02:50.781Z,87.83
2022-10-05T10:03:50.670Z,87.02
2022-10-05T10:04:50.652Z,87.12
2022-10-05T10:05:50.647Z,86.91
2022-10-05T10:06:50.632Z,86.71
2022-10-05T10:07:50.610Z,87.22
2022-10-05T10:08:50.609Z,86.82
2022-10-05T10:09:50.581Z,87.52
2022-10-05T10:10:50.576Z,88.70
2022-10-05T10:11:50.584Z,87.59
2022-10-05T10:12:50.567Z,87.32
2022-10-05T10:13:50.529Z,85.86
2022-10-05T10:14:50.547Z,86.68
2022-10-05T10:15:50.549Z,86.37
2022-10-05T10:16:50.533Z,86.37
2022-10-05T10:17:51.095Z,86.07
2022-10-05T10:18:50.478Z,86.88
2022-10-05T10:19:50.447Z,87.28
2022-10-05T10:20:50.445Z,86.47
2022-10-05T10:21:50.526Z,87.59
2022-10-05T10:22:50.445Z,88.29
2022-10-05T10:23:50.401Z,87.18
2022-10-05T10:24:50.385Z,86.68
2022-10-05T10:25:50.369Z,85.25
2022-10-05T10:26:50.418Z,87.04
2022-10-05T10:27:52.483Z,87.85
2022-10-05T10:28:50.342Z,86.43
2022-10-05T10:29:50.318Z,86.33
2022-10-05T10:30:50.364Z,87.14
2022-10-05T10:31:50.668Z,86.83
2022-10-05T10:32:50.340Z,86.13
2022-10-05T10:33:50.266Z,87.04
2022-10-05T10:34:50.260Z,86.53
2022-10-05T10:35:50.244Z,86.94
2022-10-05T10:36:50.673Z,86.83
2022-10-05T10:37:50.254Z,85.82
2022-10-05T10:38:50.202Z,85.38
2022-10-05T10:39:50.192Z,84.77
2022-10-05T10:40:50.172Z,84.56
2022-10-05T10:41:50.180Z,85.88
2022-10-05T10:42:50.153Z,85.99
2022-10-05T10:43:50.140Z,85.38
2022-10-05T10:44:50.131Z,86.39
2022-10-05T10:45:50.112Z,85.88
2022-10-05T10:46:50.609Z,84.97
2022-10-05T10:47:50.110Z,85.48
2022-10-05T10:48:50.100Z,85.07
2022-10-05T10:49:50.059Z,86.45
2022-10-05T10:50:50.062Z,85.24
2022-10-05T10:51:50.049Z,85.03
2022-10-05T10:52:50.026Z,85.03
2022-10-05T10:53:50.143Z,84.93
2022-10-05T10:54:50.027Z,84.02
2022-10-05T10:55:49.984Z,83.25
2022-10-05T10:56:50.433Z,84.53
2022-10-05T10:57:49.957Z,84.93
2022-10-05T10:58:49.955Z,84.33
2022-10-05T10:59:49.932Z,84.93
2022-10-05T11:00:49.916Z,85.13
2022-10-05T11:01:50.349Z,85.03
2022-10-05T11:02:49.949Z,84.93
2022-10-05T11:03:49.907Z,85.13
2022-10-05T11:04:49.902Z,85.94
2022-10-05T11:05:49.857Z,85.94
2022-10-05T11:06:49.842Z,85.54
2022-10-05T11:07:49.830Z,85.03
2022-10-05T11:08:49.816Z,85.24
2022-10-05T11:09:49.808Z,84.33
2022-10-05T11:10:49.794Z,84.99
2022-10-05T11:11:50.158Z,84.79
2022-10-05T11:12:49.764Z,85.10
2022-10-05T11:13:49.775Z,84.95
2022-10-05T11:14:49.760Z,84.69
2022-10-05T11:15:49.913Z,83.07
2022-10-05T11:16:50.095Z,83.84
2022-10-05T11:17:49.727Z,84.75
2022-10-05T11:18:49.707Z,83.27
2022-10-05T11:20:03.540Z,83.54
2022-10-05T11:20:49.679Z,83.33
2022-10-05T11:21:49.657Z,81.92
2022-10-05T11:22:49.643Z,84.65
2022-10-05T11:23:49.658Z,84.25
2022-10-05T11:24:49.616Z,84.75
2022-10-05T11:25:49.607Z,84.65
2022-10-05T11:26:50.012Z,83.84
2022-10-05T11:27:49.584Z,83.33
2022-10-05T11:28:49.634Z,83.94
2022-10-05T11:29:49.560Z,83.03
2022-10-05T11:30:51.210Z,83.03
2022-10-05T11:31:49.838Z,82.22
2022-10-05T11:32:49.517Z,82.83
2022-10-05T11:33:49.506Z,82.32
2022-10-05T11:34:49.546Z,84.71
2022-10-05T11:35:49.499Z,82.69
2022-10-05T11:36:49.469Z,83.90
2022-10-05T11:37:49.461Z,81.13
2022-10-05T11:38:49.442Z,82.24
2022-10-05T11:39:49.439Z,82.55
2022-10-05T11:40:49.421Z,84.23
2022-10-05T11:41:49.752Z,83.72
2022-10-05T11:42:49.395Z,82.14
2022-10-05T11:43:49.380Z,83.82
2022-10-05T11:44:49.385Z,81.76
2022-10-05T11:45:49.397Z,81.30
2022-10-05T11:46:49.400Z,81.20
2022-10-05T11:47:49.339Z,79.34
2022-10-05T11:48:49.347Z,81.50
2022-10-05T11:49:49.311Z,82.41
2022-10-05T11:50:49.319Z,80.99
2022-10-05T11:51:49.535Z,81.46
2022-10-05T11:52:49.298Z,81.56
2022-10-05T11:53:49.296Z,80.49
2022-10-05T11:55:09.864Z,81.40
2022-10-05T11:55:49.293Z,80.96
2022-10-05T11:56:52.212Z,81.76
2022-10-05T11:57:49.300Z,80.65
2022-10-05T11:58:49.203Z,81.40
2022-10-05T11:59:49.189Z,79.64
2022-10-05T12:00:49.179Z,80.35
2022-10-05T12:01:49.168Z,81.26
2022-10-05T12:02:49.266Z,79.85
2022-10-05T12:03:49.310Z,80.55
2022-10-05T12:04:49.130Z,81.46
2022-10-05T12:05:49.123Z,81.36
2022-10-05T12:06:49.444Z,81.05
2022-10-05T12:07:49.100Z,83.68
2022-10-05T12:08:49.085Z,83.44
2022-10-05T12:09:49.082Z,81.42
2022-10-05T12:10:49.063Z,81.67
2022-10-05T12:11:49.052Z,80.55
2022-10-05T12:12:49.091Z,80.35
2022-10-05T12:13:49.081Z,80.05
2022-10-05T12:14:49.014Z,81.05
2022-10-05T12:15:49.035Z,81.76
2022-10-05T12:16:48.989Z,80.15
2022-10-05T12:17:48.998Z,80.65
2022-10-05T12:18:48.968Z,79.85
2022-10-05T12:19:48.981Z,78.84
2022-10-05T12:20:48.955Z,82.07
2022-10-05T12:21:48.937Z,79.64
2022-10-05T12:22:48.955Z,81.05
2022-10-05T12:23:48.915Z,80.65
2022-10-05T12:24:48.914Z,79.04
2022-10-05T12:25:48.904Z,79.94
2022-10-05T12:26:48.874Z,81.05
2022-10-05T12:27:48.863Z,81.05
2022-10-05T12:28:48.901Z,79.64
2022-10-05T12:29:48.841Z,79.04
2022-10-05T12:30:48.834Z,80.15
2022-10-05T12:31:48.849Z,80.65
2022-10-05T12:32:48.821Z,79.14
2022-10-05T12:33:48.795Z,79.94
2022-10-05T12:34:48.801Z,81.10
2022-10-05T12:35:49.457Z,79.99
2022-10-05T12:37:04.974Z,79.48
2022-10-05T12:37:48.758Z,79.08
2022-10-05T12:38:48.735Z,79.58
2022-10-05T12:39:48.725Z,80.55
2022-10-05T12:40:48.736Z,81.67
2022-10-05T12:41:48.712Z,80.35
2022-10-05T12:42:48.688Z,80.76
2022-10-05T12:43:48.677Z,80.65
2022-10-05T12:44:48.671Z,79.04
2022-10-05T12:45:48.724Z,80.25
2022-10-05T12:46:48.644Z,80.05
2022-10-05T12:47:53.522Z,79.85
2022-10-05T12:48:48.622Z,79.21
2022-10-05T12:49:48.610Z,78.53
2022-10-05T12:50:48.621Z,78.80
2022-10-05T12:51:48.583Z,79.30
2022-10-05T12:52:48.568Z,78.90